createdAt,value
2022-08-01T04:35:22.697Z,94920
2022-08-01T04:38:35.869Z,94942
2022-08-01T04:42:01.186Z,94940
2022-08-01T04:45:26.504Z,94948
2022-08-01T04:48:51.913Z,94944
2022-08-01T04:52:19.756Z,94948
2022-08-01T04:55:43.671Z,94947
2022-08-01T04:59:11.522Z,94948
2022-08-01T05:02:37.890Z,94951
2022-08-01T05:06:03.224Z,94949
2022-08-01T05:09:31.156Z,94952
2022-08-01T05:12:54.690Z,94955
2022-08-01T05:16:20.036Z,94955
2022-08-01T05:19:45.396Z,94953
2022-08-01T05:23:10.812Z,94950
2022-08-01T05:26:36.035Z,94953
2022-08-01T05:30:01.362Z,94955
2022-08-01T05:33:26.706Z,94956
2022-08-01T05:36:56.752Z,94959
2022-08-01T05:40:17.340Z,94964
2022-08-01T05:43:42.662Z,94963
2022-08-01T05:47:07.969Z,94968
2022-08-01T05:50:33.296Z,94968
2022-08-01T05:53:58.612Z,94967
2022-08-01T05:57:23.940Z,94968
2022-08-01T06:00:49.255Z,94970
2022-08-01T06:04:14.610Z,94968
2022-08-01T06:07:39.948Z,94967
2022-08-01T06:11:05.305Z,94968
2022-08-01T06:14:30.655Z,94976
2022-08-01T06:18:11.011Z,94977
2022-08-01T06:21:43.258Z,94984
2022-08-01T06:25:08.579Z,94977
2022-08-01T06:28:33.953Z,94988
2022-08-01T06:31:59.304Z,94988
2022-08-01T06:35:24.693Z,94999
2022-08-01T06:38:50.055Z,94997
2022-08-01T06:42:15.400Z,95007
2022-08-01T06:45:40.785Z,95003
2022-08-01T06:49:06.146Z,94998
2022-08-01T06:52:31.589Z,95005
2022-08-01T06:55:56.955Z,95008
2022-08-01T06:59:22.292Z,95007
2022-08-01T07:02:47.750Z,94997
2022-08-01T07:06:13.136Z,95002
2022-08-01T07:09:38.524Z,95005
2022-08-01T07:13:03.876Z,94999
2022-08-01T07:16:29.271Z,95004
2022-08-01T07:19:54.636Z,95009
2022-08-01T07:23:22.649Z,95011
2022-08-01T07:26:52.777Z,95007
2022-08-01T07:30:11.812Z,95006
2022-08-01T07:33:47.848Z,95006
2022-08-01T07:37:03.748Z,95002
2022-08-01T07:40:30.100Z,95001
2022-08-01T07:43:58.752Z,95009
2022-08-01T07:47:20.864Z,95012
2022-08-01T07:50:46.190Z,95010
2022-08-01T07:54:11.546Z,95010
2022-08-01T07:57:36.880Z,95010
2022-08-01T08:01:02.223Z,95006
2022-08-01T08:04:27.565Z,95005
2022-08-01T08:07:52.875Z,95008
2022-08-01T08:11:18.173Z,94998
2022-08-01T08:14:43.533Z,95002
2022-08-01T08:18:08.975Z,94997
2022-08-01T08:21:34.333Z,94994
2022-08-01T08:24:59.924Z,94997
2022-08-01T08:28:28.079Z,94997
2022-08-01T08:31:51.124Z,95002
2022-08-01T08:35:19.924Z,95004
2022-08-01T08:38:41.308Z,95000
2022-08-01T08:42:06.824Z,95000
2022-08-01T08:45:45.507Z,95005
2022-08-01T08:48:57.446Z,95008
2022-08-01T08:52:22.767Z,95014
2022-08-01T08:55:55.252Z,95013
2022-08-01T08:59:13.438Z,95016
2022-08-01T09:02:38.815Z,95011
2022-08-01T09:06:04.140Z,95012
2022-08-01T09:09:29.495Z,95022
2022-08-01T09:12:54.830Z,95027
2022-08-01T09:16:20.226Z,95029
2022-08-01T09:19:45.581Z,95033
2022-08-01T09:23:10.914Z,95027
2022-08-01T09:26:36.260Z,95032
2022-08-01T09:30:02.251Z,95032
2022-08-01T09:33:26.880Z,95030
2022-08-01T09:36:52.198Z,95031
2022-08-01T09:40:17.578Z,95019
2022-08-01T09:43:42.849Z,95019
2022-08-01T09:47:08.299Z,95024
2022-08-01T09:50:33.503Z,95028
2022-08-01T09:53:58.865Z,95029
2022-08-01T09:57:24.184Z,95028
2022-08-01T10:00:49.499Z,95035
2022-08-01T10:04:15.113Z,95037
2022-08-01T10:07:42.677Z,95046
2022-08-01T10:11:05.494Z,95059
2022-08-01T10:14:30.864Z,95066
2022-08-01T10:17:57.179Z,95069
2022-08-01T10:21:45.519Z,95065
2022-08-01T10:24:46.898Z,95073
2022-08-01T10:28:12.238Z,95071
2022-08-01T10:31:37.577Z,95065
2022-08-01T10:35:06.161Z,95074
2022-08-01T10:38:28.237Z,95077
2022-08-01T10:41:53.555Z,95080
2022-08-01T10:45:18.898Z,95080
2022-08-01T10:48:44.226Z,95073
2022-08-01T10:52:09.548Z,95076
2022-08-01T10:55:34.864Z,95077
2022-08-01T10:59:00.199Z,95081
2022-08-01T11:02:25.538Z,95072
2022-08-01T11:05:50.862Z,95078
2022-08-01T11:09:16.354Z,95079
2022-08-01T11:12:41.514Z,95081
2022-08-01T11:16:12.619Z,95083
2022-08-01T11:19:32.165Z,95082
2022-08-01T11:22:57.487Z,95087
2022-08-01T11:26:28.694Z,95087
2022-08-01T11:29:48.157Z,95089
2022-08-01T11:33:13.474Z,95084
2022-08-01T11:37:04.527Z,95086
2022-08-01T11:40:04.125Z,95085
2022-08-01T11:43:29.436Z,95085
2022-08-01T11:46:54.764Z,95076
2022-08-01T11:50:20.110Z,95081
2022-08-01T11:53:49.583Z,95085
2022-08-01T11:57:14.952Z,95072
2022-08-01T12:00:43.912Z,95078
2022-08-01T12:04:05.587Z,95073
2022-08-01T12:07:30.911Z,95073
2022-08-01T12:11:02.238Z,95067
2022-08-01T12:14:21.576Z,95068
2022-08-01T12:17:58.725Z,95064
2022-08-01T12:21:12.226Z,95061
2022-08-01T12:24:37.540Z,95062
2022-08-01T12:28:02.870Z,95062
2022-08-01T12:31:28.205Z,95059
2022-08-01T12:34:53.551Z,95061
2022-08-01T12:38:18.882Z,95062
2022-08-01T12:41:44.221Z,95062
2022-08-01T12:45:09.599Z,95056
2022-08-01T12:48:34.949Z,95059
2022-08-01T12:52:00.310Z,95052
2022-08-01T12:55:33.453Z,95047
2022-08-01T12:58:50.951Z,95047
2022-08-01T13:02:16.257Z,95054
2022-08-01T13:05:41.679Z,95053
2022-08-01T13:09:07.075Z,95058
2022-08-01T13:12:32.586Z,95056
2022-08-01T13:15:58.232Z,95052
2022-08-01T13:19:24.278Z,95044
2022-08-01T13:22:50.398Z,95041
2022-08-01T13:26:16.340Z,95041
2022-08-01T13:29:42.576Z,95044
2022-08-01T13:33:08.111Z,95036
2022-08-01T13:36:34.054Z,95032
2022-08-01T13:40:00.464Z,95039
2022-08-01T13:43:29.456Z,95039
2022-08-01T13:46:52.468Z,95038
2022-08-01T13:50:18.721Z,95031
2022-08-01T13:53:44.675Z,95032
2022-08-01T13:57:10.837Z,95026
2022-08-01T14:00:36.900Z,95030
2022-08-01T14:04:02.905Z,95032
2022-08-01T14:07:28.965Z,95031
2022-08-01T14:10:55.001Z,95037
2022-08-01T14:14:20.750Z,95044
2022-08-01T14:17:47.755Z,95045
2022-08-01T14:21:12.521Z,95041
2022-08-01T14:24:38.931Z,95043
2022-08-01T14:28:04.561Z,95037
2022-08-01T15:06:25.128Z,95044
2022-08-01T15:09:50.483Z,95046
2022-08-01T15:13:15.815Z,95045
2022-08-01T15:16:41.121Z,95044
2022-08-01T15:20:06.423Z,95035
2022-08-01T15:23:31.756Z,95044
2022-08-01T15:26:57.107Z,95043
2022-08-01T15:30:23.637Z,95043
2022-08-01T15:33:47.758Z,95050
2022-08-01T15:37:13.118Z,95042
2022-08-01T15:40:38.467Z,95042
2022-08-01T15:44:03.778Z,95050
2022-08-01T15:47:29.097Z,95050
2022-08-01T15:50:54.401Z,95051
2022-08-01T15:54:19.724Z,95045
2022-08-01T15:57:45.086Z,95046
2022-08-01T16:01:10.406Z,95046
2022-08-01T16:04:35.760Z,95044
2022-08-01T16:08:01.797Z,95041
2022-08-01T16:11:26.410Z,95041
2022-08-01T16:14:51.775Z,95041
2022-08-01T16:18:17.130Z,95045
2022-08-01T16:21:46.056Z,95045
2022-08-01T16:25:07.899Z,95040
2022-08-01T16:28:33.224Z,95031
2022-08-01T16:32:03.267Z,95039
2022-08-01T16:35:24.533Z,95034
2022-08-01T16:38:49.336Z,95033
2022-08-01T16:42:14.683Z,95035
2022-08-01T16:45:42.577Z,95034
2022-08-01T16:49:05.613Z,95028
2022-08-01T16:52:30.922Z,95031
2022-08-01T16:55:56.326Z,95026
2022-08-01T16:59:21.700Z,95020
2022-08-01T17:02:47.081Z,95018
2022-08-01T17:06:12.363Z,95028
2022-08-01T17:09:42.875Z,95036
2022-08-01T17:13:03.540Z,95031
2022-08-01T17:16:28.856Z,95028
2022-08-01T17:19:54.169Z,95032
2022-08-01T17:23:19.507Z,95031
2022-08-01T17:26:44.875Z,95034
2022-08-01T17:30:10.165Z,95034
2022-08-01T17:33:44.968Z,95032
2022-08-01T17:37:00.855Z,95033
2022-08-01T17:40:39.438Z,95032
2022-08-01T17:43:51.915Z,95033
2022-08-01T17:47:34.626Z,95035
2022-08-01T17:50:42.614Z,95043
2022-08-01T17:54:08.009Z,95045
2022-08-01T17:57:33.376Z,95057
2022-08-01T18:00:58.787Z,95062
2022-08-01T18:04:24.149Z,95058
2022-08-01T18:08:00.234Z,95057
2022-08-01T18:11:14.780Z,95060
2022-08-01T18:14:41.252Z,95065
2022-08-01T18:18:05.413Z,95070
2022-08-01T18:21:30.740Z,95070
2022-08-01T18:24:56.049Z,95073
2022-08-01T18:28:25.742Z,95074
2022-08-01T18:31:46.694Z,95079
2022-08-01T18:35:14.145Z,95083
2022-08-01T18:38:38.999Z,95091
2022-08-01T18:42:02.639Z,95097
2022-08-01T18:45:27.939Z,95097
2022-08-01T18:48:53.306Z,95101
2022-08-01T18:52:18.590Z,95111
2022-08-01T18:55:43.913Z,95116
2022-08-01T18:59:09.230Z,95122
2022-08-01T19:02:34.543Z,95126
2022-08-01T19:05:59.851Z,95120
2022-08-01T19:09:25.138Z,95124
2022-08-01T19:12:50.455Z,95127
2022-08-01T19:16:15.776Z,95133
2022-08-01T19:19:41.089Z,95138
2022-08-01T19:23:06.403Z,95150
2022-08-01T19:26:31.736Z,95147
2022-08-01T19:29:57.058Z,95148
2022-08-01T19:33:22.382Z,95152
2022-08-01T19:36:47.717Z,95155
2022-08-01T19:40:26.488Z,95158
2022-08-01T19:43:40.544Z,95172
2022-08-01T19:47:03.909Z,95179
2022-08-01T19:50:29.083Z,95175
2022-08-01T19:53:55.235Z,95174
2022-08-01T19:57:19.702Z,95178
2022-08-01T20:00:45.008Z,95185
2022-08-01T20:04:10.318Z,95190
2022-08-01T20:07:35.642Z,95188
2022-08-01T20:11:05.491Z,95191
2022-08-01T20:14:26.291Z,95200
2022-08-01T20:17:51.601Z,95198
2022-08-01T20:21:18.151Z,95199
2022-08-01T20:24:43.644Z,95200
2022-08-01T20:28:08.781Z,95197
2022-08-01T20:31:42.764Z,95198
2022-08-01T20:34:59.401Z,95202
2022-08-01T20:38:24.745Z,95206
2022-08-01T20:41:50.039Z,95207
2022-08-01T20:45:18.449Z,95204
2022-08-01T20:48:40.673Z,95212
2022-08-01T20:52:11.458Z,95213
2022-08-01T20:55:31.331Z,95213
2022-08-01T20:58:58.535Z,95214
2022-08-01T21:02:21.944Z,95213
2022-08-01T21:05:55.711Z,95215
2022-08-01T21:09:12.548Z,95221
2022-08-01T21:12:37.884Z,95227
2022-08-01T21:16:07.439Z,95229
2022-08-01T21:19:28.480Z,95236
2022-08-01T21:22:53.802Z,95236
2022-08-01T21:26:19.099Z,95237
2022-08-01T21:29:44.404Z,95231
2022-08-01T21:33:09.698Z,95237
2022-08-01T21:36:35.020Z,95231
2022-08-01T21:40:02.655Z,95228
2022-08-01T21:43:25.641Z,95226
2022-08-01T21:46:50.960Z,95232
2022-08-01T21:50:16.261Z,95234
2022-08-01T21:53:43.298Z,95235
2022-08-01T21:57:06.882Z,95238
2022-08-01T22:00:32.198Z,95244
2022-08-01T22:03:57.512Z,95248
2022-08-01T22:07:22.798Z,95252
2022-08-01T22:10:48.110Z,95256
2022-08-01T22:14:13.418Z,95267
2022-08-01T22:17:38.742Z,95271
2022-08-01T22:21:04.047Z,95269
2022-08-01T22:24:29.355Z,95269
2022-08-01T22:28:02.741Z,95268
2022-08-01T22:31:19.988Z,95262
2022-08-01T22:34:45.299Z,95267
2022-08-01T22:38:10.600Z,95271
2022-08-01T22:42:01.074Z,95272
2022-08-01T22:45:01.266Z,95278
2022-08-01T22:48:26.666Z,95278
2022-08-01T22:51:54.781Z,95283
2022-08-01T22:55:17.184Z,95278
2022-08-01T22:58:42.500Z,95277
2022-08-01T23:02:08.008Z,95272
2022-08-01T23:05:33.100Z,95264
2022-08-01T23:08:58.446Z,95262
2022-08-01T23:12:23.743Z,95266
2022-08-01T23:15:52.178Z,95267
2022-08-01T23:19:14.359Z,95268
2022-08-01T23:22:39.652Z,95263
2022-08-01T23:26:04.970Z,95259
2022-08-01T23:29:30.274Z,95259
2022-08-01T23:32:55.604Z,95265
2022-08-01T23:36:20.916Z,95270
2022-08-01T23:39:46.242Z,95267
2022-08-01T23:43:14.814Z,95263
2022-08-01T23:46:36.858Z,95271
2022-08-01T23:50:02.188Z,95272
2022-08-01T23:53:30.791Z,95272
2022-08-01T23:56:52.781Z,95269
